Time;durP1;ratioP1;P1;durP2;ratioP2;P2;SDS_P1;SDS_P2;PMS_P1;PMS_P2;Temp;Humidity;BMP_temperature;BMP_pressure;BME280_temperature;BME280_humidity;BME280_pressure;Samples;Min_cycle;Max_cycle;Signal;HPM_P1;HPM_P2
2022/03/10 00:02:14;;;;;;;45.83;17.38;;;2.30;61.00;;;;;;5050871;23;20032;-87
2022/03/10 00:04:40;;;;;;;41.85;16.88;;;2.30;60.90;;;;;;4982559;28;20031;-87
2022/03/10 00:07:06;;;;;;;33.72;14.77;;;2.30;60.60;;;;;;4981090;28;20521;-87
2022/03/10 00:09:32;;;;;;;35.38;14.70;;;2.20;60.60;;;;;;4968573;28;20113;-87
2022/03/10 00:12:01;;;;;;;28.48;13.25;;;2.20;60.60;;;;;;4956000;28;20059;-87
2022/03/10 00:14:27;;;;;;;33.38;13.75;;;2.10;60.60;;;;;;4960441;28;20031;-86
2022/03/10 00:16:53;;;;;;;36.05;15.57;;;2.10;60.60;;;;;;4960776;28;20103;-88
2022/03/10 00:19:19;;;;;;;48.42;19.65;;;2.00;60.50;;;;;;4976209;28;20145;-86
2022/03/10 00:21:46;;;;;;;53.38;22.27;;;2.00;60.70;;;;;;4961258;28;20038;-87
2022/03/10 00:24:11;;;;;;;33.80;15.13;;;2.00;60.70;;;;;;4960048;28;20034;-87
2022/03/10 00:26:37;;;;;;;25.48;12.38;;;1.90;60.70;;;;;;4977693;28;20332;-87
2022/03/10 00:29:04;;;;;;;19.50;10.70;;;1.90;60.60;;;;;;4972342;28;20479;-87
2022/03/10 00:31:30;;;;;;;19.77;9.95;;;1.80;60.50;;;;;;4959160;28;20023;-88
2022/03/10 00:33:55;;;;;;;18.40;9.63;;;1.70;60.60;;;;;;4975812;28;20098;-87
2022/03/10 00:36:21;;;;;;;19.35;9.95;;;1.60;60.70;;;;;;4958520;28;20035;-88
2022/03/10 00:38:46;;;;;;;19.20;9.77;;;1.60;60.80;;;;;;4962972;28;20023;-87
2022/03/10 00:41:12;;;;;;;17.08;9.48;;;1.50;60.90;;;;;;4976155;28;20041;-87
2022/03/10 00:43:38;;;;;;;18.80;10.35;;;1.50;61.10;;;;;;4958364;28;20546;-86
2022/03/10 00:46:03;;;;;;;16.67;9.52;;;1.40;61.10;;;;;;4976926;28;20583;-87
2022/03/10 00:48:29;;;;;;;20.13;9.45;;;1.40;61.30;;;;;;4970061;28;20026;-87
2022/03/10 00:50:55;;;;;;;17.02;9.65;;;1.40;61.50;;;;;;4978384;28;20352;-87
2022/03/10 00:53:20;;;;;;;16.88;10.23;;;1.40;61.70;;;;;;4983409;28;20525;-87
2022/03/10 00:55:46;;;;;;;17.40;8.85;;;1.40;62.00;;;;;;4961231;28;20023;-87
2022/03/10 00:58:12;;;;;;;15.77;9.35;;;1.40;62.10;;;;;;4976200;28;20027;-87
2022/03/10 01:00:37;;;;;;;14.57;8.80;;;1.40;62.00;;;;;;4976578;28;20035;-87
2022/03/10 01:03:04;;;;;;;18.30;9.23;;;1.40;61.90;;;;;;4957628;28;20031;-86
2022/03/10 01:05:30;;;;;;;19.35;8.93;;;1.30;61.70;;;;;;4958904;28;20023;-87
2022/03/10 01:07:55;;;;;;;14.85;9.25;;;1.30;62.00;;;;;;4959959;28;20026;-87
2022/03/10 01:10:21;;;;;;;16.70;9.10;;;1.20;61.60;;;;;;4958715;28;20043;-87
2022/03/10 01:12:47;;;;;;;15.38;9.32;;;1.10;61.80;;;;;;4959350;28;20022;-87
2022/03/10 01:15:17;;;;;;;16.38;9.07;;;1.10;62.10;;;;;;4959993;28;20118;-87
2022/03/10 01:17:44;;;;;;;16.58;9.38;;;1.10;62.30;;;;;;4961154;28;20511;-86
2022/03/10 01:20:10;;;;;;;18.08;9.98;;;1.10;62.40;;;;;;4977650;28;20030;-86
2022/03/10 01:22:36;;;;;;;17.13;9.10;;;1.10;62.30;;;;;;4978071;28;20054;-87
2022/03/10 01:25:03;;;;;;;14.45;8.85;;;1.10;62.30;;;;;;4972808;28;20719;-88
2022/03/10 01:27:29;;;;;;;17.52;9.10;;;1.00;62.20;;;;;;4975924;28;20475;-87
2022/03/10 01:29:54;;;;;;;17.30;9.27;;;1.00;62.50;;;;;;4958812;28;20071;-86
2022/03/10 01:32:20;;;;;;;17.92;9.75;;;1.10;62.60;;;;;;4958037;28;20031;-86
2022/03/10 01:34:45;;;;;;;18.35;9.75;;;1.00;62.90;;;;;;4959958;28;20019;-86
2022/03/10 01:37:11;;;;;;;15.70;9.23;;;1.00;62.50;;;;;;4969948;28;20031;-87
2022/03/10 01:39:36;;;;;;;15.07;9.18;;;1.00;62.70;;;;;;4956909;28;20031;-87
2022/03/10 01:42:06;;;;;;;18.08;9.13;;;1.00;62.80;;;;;;4976240;28;20026;-87
2022/03/10 01:44:32;;;;;;;15.38;8.88;;;1.00;62.80;;;;;;4970186;28;20380;-86
2022/03/10 01:46:58;;;;;;;17.50;9.15;;;1.00;62.80;;;;;;4975398;28;20130;-87
2022/03/10 01:49:24;;;;;;;16.48;8.88;;;1.00;62.60;;;;;;4987680;28;20341;-86
2022/03/10 01:51:50;;;;;;;27.83;12.20;;;0.90;62.50;;;;;;4964575;28;20038;-86
2022/03/10 01:54:16;;;;;;;67.28;21.27;;;0.80;62.40;;;;;;4978371;28;20010;-88
2022/03/10 01:56:42;;;;;;;31.77;12.98;;;0.70;62.60;;;;;;4967809;28;20039;-87
2022/03/10 01:59:08;;;;;;;22.65;10.93;;;0.60;62.60;;;;;;4960055;28;20031;-87
2022/03/10 02:01:35;;;;;;;20.83;9.82;;;0.60;62.70;;;;;;4959189;28;20023;-87
2022/03/10 02:04:00;;;;;;;17.00;9.30;;;0.50;62.70;;;;;;4960074;28;20054;-86
2022/03/10 02:06:26;;;;;;;15.68;8.60;;;0.40;62.80;;;;;;4975958;28;20027;-88
2022/03/10 02:11:38;;;;;;;22.52;10.38;;;0.20;62.80;;;;;;4976755;28;20046;-87
2022/03/10 02:17:19;;;;;;;44.92;18.13;;;0.20;63.20;;;;;;4961012;28;20463;-86
2022/03/10 02:19:33;;;;;;;43.47;17.88;;;0.30;63.70;;;;;;4981466;28;20085;-87
2022/03/10 02:22:08;;;;;;;40.10;17.48;;;0.30;63.80;;;;;;4958065;28;20125;-87
2022/03/10 02:24:36;;;;;;;17.20;9.57;;;0.30;64.30;;;;;;4974885;28;20023;-87
2022/03/10 02:27:24;;;;;;;20.75;10.02;;;0.40;64.20;;;;;;4975038;28;20046;-86
2022/03/10 02:30:00;;;;;;;15.95;9.65;;;0.40;64.20;;;;;;4938868;28;20158;-86
2022/03/10 02:32:27;;;;;;;18.77;9.48;;;0.50;64.40;;;;;;4959129;28;20023;-86
2022/03/10 02:34:52;;;;;;;16.95;8.60;;;0.50;64.30;;;;;;4957478;28;20026;-86
2022/03/10 02:37:18;;;;;;;16.95;9.57;;;0.50;64.30;;;;;;4974533;28;20121;-86
2022/03/10 02:39:45;;;;;;;15.13;9.13;;;0.50;64.30;;;;;;4943458;28;20061;-86
2022/03/10 02:42:15;;;;;;;15.57;8.85;;;0.50;64.40;;;;;;4950763;28;20098;-86
2022/03/10 02:44:46;;;;;;;17.25;8.80;;;0.50;64.60;;;;;;4957768;28;20112;-86
2022/03/10 02:47:11;;;;;;;15.93;9.20;;;0.50;64.80;;;;;;4963322;28;20496;-86
2022/03/10 02:49:38;;;;;;;15.10;8.00;;;0.40;64.80;;;;;;4992353;28;20061;-86
2022/03/10 02:52:04;;;;;;;16.40;8.55;;;0.40;65.10;;;;;;4975095;28;20394;-86
2022/03/10 02:54:30;;;;;;;17.25;7.97;;;0.40;65.30;;;;;;4961908;28;20031;-86
2022/03/10 02:56:56;;;;;;;15.85;8.65;;;0.30;65.20;;;;;;4974991;28;20023;-86
2022/03/10 02:59:22;;;;;;;15.30;8.57;;;0.30;65.70;;;;;;4957224;28;20034;-86
2022/03/10 03:01:48;;;;;;;14.93;8.20;;;0.30;65.10;;;;;;4957449;28;20035;-86
2022/03/10 03:04:13;;;;;;;13.43;8.48;;;0.30;65.10;;;;;;4960280;28;20038;-86
2022/03/10 03:06:39;;;;;;;14.52;8.70;;;0.30;65.20;;;;;;4975111;28;20030;-87
2022/03/10 03:09:04;;;;;;;16.02;8.77;;;0.20;65.20;;;;;;4958523;28;20072;-86
2022/03/10 03:11:30;;;;;;;14.82;8.82;;;0.30;65.40;;;;;;4979429;28;20089;-87
2022/03/10 03:13:56;;;;;;;15.40;8.38;;;0.20;65.20;;;;;;4980088;28;20069;-87
2022/03/10 03:16:23;;;;;;;16.08;8.90;;;0.20;65.20;;;;;;4962914;28;20031;-87
2022/03/10 03:18:49;;;;;;;15.77;9.27;;;0.10;65.20;;;;;;4959742;28;20030;-87
2022/03/10 03:21:15;;;;;;;14.80;8.45;;;0.00;65.30;;;;;;4967135;28;20031;-87
2022/03/10 03:23:40;;;;;;;18.27;8.43;;;0.00;65.30;;;;;;4979359;28;20041;-88
2022/03/10 03:26:06;;;;;;;16.52;9.00;;;-0.10;65.30;;;;;;4978186;28;20479;-86
2022/03/10 03:28:31;;;;;;;14.75;8.40;;;-0.20;65.40;;;;;;4972259;28;20071;-87
2022/03/10 03:30:57;;;;;;;16.92;9.27;;;-0.20;65.60;;;;;;4982250;28;20100;-88
2022/03/10 03:33:22;;;;;;;16.52;9.30;;;-0.20;65.80;;;;;;4970811;28;20475;-88
2022/03/10 03:35:48;;;;;;;13.90;8.70;;;-0.10;65.90;;;;;;4959383;28;20048;-86
2022/03/10 03:38:13;;;;;;;13.38;8.65;;;-0.20;66.00;;;;;;4966647;28;20035;-87
2022/03/10 03:40:40;;;;;;;15.52;8.45;;;-0.20;66.00;;;;;;4961812;28;20054;-87
2022/03/10 03:43:06;;;;;;;15.85;8.25;;;-0.20;66.10;;;;;;4962646;28;20034;-87
2022/03/10 03:45:32;;;;;;;15.95;8.27;;;-0.20;66.20;;;;;;4958711;28;20034;-86
2022/03/10 03:47:57;;;;;;;18.63;8.80;;;-0.20;66.40;;;;;;4979084;28;20030;-86
2022/03/10 03:50:23;;;;;;;15.50;7.75;;;-0.20;66.40;;;;;;4988323;28;20436;-86
2022/03/10 03:52:49;;;;;;;15.70;8.63;;;-0.20;66.30;;;;;;4979527;28;20038;-87
2022/03/10 03:55:14;;;;;;;16.05;8.65;;;-0.20;66.30;;;;;;4950469;28;20030;-87
2022/03/10 03:57:41;;;;;;;15.60;8.38;;;-0.20;66.40;;;;;;4955590;28;20499;-87
2022/03/10 04:00:09;;;;;;;15.35;8.95;;;-0.30;66.60;;;;;;4968262;28;20022;-86
2022/03/10 04:02:36;;;;;;;19.85;8.55;;;-0.30;66.80;;;;;;4975050;28;20050;-86
2022/03/10 04:05:02;;;;;;;17.45;8.32;;;-0.30;66.90;;;;;;4961740;28;20483;-86
2022/03/10 04:07:27;;;;;;;16.00;9.15;;;-0.30;66.70;;;;;;4978785;28;20554;-86
2022/03/10 04:09:53;;;;;;;14.43;8.43;;;-0.30;66.80;;;;;;4969766;28;20031;-87
2022/03/10 04:12:18;;;;;;;15.25;8.90;;;-0.30;66.80;;;;;;4978642;28;20178;-86
2022/03/10 04:14:44;;;;;;;13.38;8.10;;;-0.30;66.80;;;;;;4976941;28;20027;-87
2022/03/10 04:17:09;;;;;;;16.05;8.25;;;-0.40;66.80;;;;;;4969118;28;20102;-86
2022/03/10 04:19:35;;;;;;;17.58;9.60;;;-0.50;67.00;;;;;;4980952;28;22421;-86
2022/03/10 04:22:01;;;;;;;13.85;8.52;;;-0.40;67.30;;;;;;4960824;28;20035;-85
2022/03/10 04:24:26;;;;;;;14.35;8.38;;;-0.40;67.40;;;;;;4977684;28;20418;-86
2022/03/10 04:26:52;;;;;;;15.38;8.30;;;-0.40;67.20;;;;;;4963219;28;20030;-86
2022/03/10 04:29:18;;;;;;;14.35;8.45;;;-0.40;67.20;;;;;;4966786;28;20034;-86
2022/03/10 04:31:43;;;;;;;14.18;8.20;;;-0.50;67.20;;;;;;4958909;28;20023;-86
2022/03/10 04:34:10;;;;;;;15.63;8.40;;;-0.50;67.40;;;;;;4969738;28;20026;-87
2022/03/10 04:36:35;;;;;;;15.95;8.65;;;-0.60;67.40;;;;;;4976097;28;20095;-87
2022/03/10 04:39:02;;;;;;;19.08;9.60;;;-0.60;67.70;;;;;;4969643;28;20503;-86
2022/03/10 04:41:28;;;;;;;14.00;8.02;;;-0.60;68.10;;;;;;4962302;28;20506;-87
2022/03/10 04:43:53;;;;;;;18.02;9.20;;;-0.60;68.10;;;;;;4983463;28;20035;-87
2022/03/10 04:46:19;;;;;;;16.48;8.98;;;-0.60;68.00;;;;;;4982805;28;20019;-87
2022/03/10 04:48:45;;;;;;;15.05;8.55;;;-0.60;68.30;;;;;;4999397;28;20065;-87
2022/03/10 04:51:11;;;;;;;17.95;9.15;;;-0.50;68.20;;;;;;4962292;28;20445;-86
2022/03/10 04:53:36;;;;;;;17.80;8.68;;;-0.60;68.00;;;;;;4961924;28;20372;-87
2022/03/10 04:56:02;;;;;;;15.77;8.85;;;-0.60;68.10;;;;;;4961742;28;20054;-86
2022/03/10 04:58:28;;;;;;;14.55;8.05;;;-0.70;68.10;;;;;;4968327;28;20053;-87
2022/03/10 05:00:53;;;;;;;14.77;8.75;;;-0.80;68.00;;;;;;4959930;28;20046;-86
2022/03/10 05:03:19;;;;;;;19.17;9.45;;;-0.90;68.00;;;;;;4960860;28;20037;-86
2022/03/10 05:05:47;;;;;;;19.15;9.32;;;-1.00;68.10;;;;;;4959559;28;21940;-86
2022/03/10 05:08:13;;;;;;;17.60;9.10;;;-1.00;68.50;;;;;;4977239;28;20031;-86
2022/03/10 05:10:38;;;;;;;19.58;9.60;;;-1.00;68.70;;;;;;4961738;28;20026;-86
2022/03/10 05:13:04;;;;;;;16.83;9.05;;;-1.00;68.60;;;;;;4961872;28;20122;-86
2022/03/10 05:15:31;;;;;;;15.23;8.70;;;-1.00;68.60;;;;;;4959006;28;20054;-87
2022/03/10 05:17:58;;;;;;;21.08;9.55;;;-1.00;68.70;;;;;;4973410;28;20026;-87
2022/03/10 05:20:25;;;;;;;16.05;8.70;;;-1.10;68.60;;;;;;4955948;28;20058;-87
2022/03/10 05:22:52;;;;;;;16.65;8.60;;;-1.10;68.70;;;;;;4954480;28;20027;-86
2022/03/10 05:25:19;;;;;;;13.68;8.50;;;-1.10;68.80;;;;;;4967250;28;20105;-86
2022/03/10 05:27:45;;;;;;;19.25;9.38;;;-1.20;68.80;;;;;;4968537;28;20034;-88
2022/03/10 05:30:12;;;;;;;17.60;9.13;;;-1.10;69.20;;;;;;4963771;28;20027;-87
2022/03/10 05:32:39;;;;;;;16.08;9.05;;;-1.10;69.50;;;;;;4973563;28;20399;-88
2022/03/10 05:35:07;;;;;;;17.25;9.13;;;-1.00;69.40;;;;;;4961891;28;20571;-87
2022/03/10 05:37:36;;;;;;;20.02;9.40;;;-0.90;69.20;;;;;;4966966;28;20115;-87
2022/03/10 05:40:02;;;;;;;19.77;10.63;;;-1.00;69.10;;;;;;4974993;28;20030;-86
2022/03/10 05:42:28;;;;;;;27.55;13.88;;;-0.90;69.20;;;;;;4948684;28;20034;-86
2022/03/10 05:44:53;;;;;;;19.13;9.70;;;-0.90;69.20;;;;;;4954980;28;20054;-86
2022/03/10 05:47:19;;;;;;;18.10;9.75;;;-1.00;69.10;;;;;;4955287;28;20030;-87
2022/03/10 05:49:44;;;;;;;19.15;9.63;;;-1.00;69.10;;;;;;4973257;28;20031;-86
2022/03/10 05:52:10;;;;;;;19.48;9.35;;;-1.00;69.40;;;;;;4950694;28;20026;-86
2022/03/10 05:54:36;;;;;;;18.55;9.60;;;-1.00;69.40;;;;;;4956398;28;20031;-87
2022/03/10 05:57:02;;;;;;;20.73;9.05;;;-1.00;69.50;;;;;;4951738;28;20031;-86
2022/03/10 05:59:27;;;;;;;17.17;9.05;;;-0.90;69.60;;;;;;4955003;28;20046;-86
2022/03/10 06:01:54;;;;;;;15.60;8.48;;;-1.00;69.70;;;;;;4956391;28;20113;-86
2022/03/10 06:04:19;;;;;;;15.45;9.07;;;-1.00;69.60;;;;;;4981563;23;20101;-87
2022/03/10 06:06:45;;;;;;;15.60;8.45;;;-0.90;69.80;;;;;;4973562;28;20022;-88
2022/03/10 06:09:11;;;;;;;15.23;8.38;;;-0.90;69.70;;;;;;4981215;28;20038;-86
2022/03/10 06:11:37;;;;;;;16.17;8.70;;;-0.90;69.80;;;;;;4955708;28;20030;-87
2022/03/10 06:14:03;;;;;;;14.07;8.48;;;-0.90;70.10;;;;;;4957624;28;20057;-87
2022/03/10 06:16:29;;;;;;;19.83;8.50;;;-0.90;70.20;;;;;;4975739;28;20068;-87
2022/03/10 06:18:55;;;;;;;14.32;8.82;;;-0.80;70.20;;;;;;4966359;28;20022;-87
2022/03/10 06:21:22;;;;;;;18.42;9.82;;;-0.80;70.10;;;;;;5005684;28;20010;-86
2022/03/10 06:23:50;;;;;;;17.65;8.82;;;-0.90;70.10;;;;;;4997538;28;20031;-86
2022/03/10 06:26:18;;;;;;;16.00;9.20;;;-0.90;70.20;;;;;;4988849;28;20025;-86
2022/03/10 06:28:44;;;;;;;17.30;8.77;;;-0.80;70.30;;;;;;4994306;28;20035;-89
2022/03/10 06:31:09;;;;;;;19.45;8.93;;;-0.80;70.60;;;;;;4973699;28;20496;-87
2022/03/10 06:33:36;;;;;;;16.48;9.13;;;-0.70;71.20;;;;;;4971125;28;20056;-87
2022/03/10 06:36:03;;;;;;;17.42;9.52;;;-0.60;70.80;;;;;;4974665;28;20027;-88
2022/03/10 06:38:28;;;;;;;16.20;9.45;;;-0.50;71.00;;;;;;4954479;28;20020;-88
2022/03/10 06:40:54;;;;;;;22.00;8.65;;;-0.50;71.00;;;;;;4958554;28;20042;-87
2022/03/10 06:43:20;;;;;;;18.17;9.45;;;-0.30;71.30;;;;;;4954267;28;20064;-88
2022/03/10 06:45:45;;;;;;;21.83;10.18;;;-0.20;71.60;;;;;;4952330;28;20028;-87
2022/03/10 06:48:11;;;;;;;17.55;8.95;;;0.00;71.90;;;;;;4962445;28;20448;-87
2022/03/10 06:50:37;;;;;;;17.08;9.20;;;0.10;72.00;;;;;;4972245;28;20025;-87
2022/03/10 06:53:04;;;;;;;17.10;8.80;;;0.30;72.10;;;;;;4954316;28;20419;-87
2022/03/10 06:55:29;;;;;;;17.77;9.85;;;0.50;72.80;;;;;;4952919;28;20395;-88
2022/03/10 06:57:55;;;;;;;17.90;9.45;;;0.70;72.40;;;;;;4954214;28;20027;-87
2022/03/10 07:00:22;;;;;;;17.63;9.73;;;0.80;72.50;;;;;;4953592;28;20033;-87
2022/03/10 07:02:48;;;;;;;15.63;9.60;;;1.00;72.50;;;;;;4954799;28;20019;-88
2022/03/10 07:05:14;;;;;;;15.10;9.13;;;1.10;72.40;;;;;;4972475;28;20031;-88
2022/03/10 07:07:40;;;;;;;23.88;9.40;;;1.30;72.60;;;;;;4944947;28;20027;-87
2022/03/10 07:10:07;;;;;;;18.02;8.60;;;1.50;72.70;;;;;;4955125;28;20027;-88
2022/03/10 07:12:39;;;;;;;15.00;8.02;;;1.60;72.70;;;;;;4974750;28;20047;-86
2022/03/10 07:15:06;;;;;;;14.40;8.63;;;1.80;72.60;;;;;;4954857;28;20030;-87
2022/03/10 07:17:31;;;;;;;17.50;8.70;;;2.00;72.60;;;;;;4964449;28;20054;-88
2022/03/10 07:19:57;;;;;;;15.10;8.05;;;2.20;72.60;;;;;;4962021;28;20319;-87
2022/03/10 07:22:23;;;;;;;15.15;8.15;;;2.30;72.60;;;;;;4972301;28;20166;-89
2022/03/10 07:24:49;;;;;;;16.65;7.95;;;2.50;72.70;;;;;;4972316;28;20372;-88
2022/03/10 07:27:14;;;;;;;15.40;8.02;;;2.70;72.80;;;;;;4974933;28;20034;-88
2022/03/10 07:29:40;;;;;;;15.00;8.48;;;3.10;72.60;;;;;;4978308;28;20027;-88
2022/03/10 07:32:06;;;;;;;16.92;8.52;;;3.50;72.10;;;;;;4982210;28;20550;-88
2022/03/10 07:34:32;;;;;;;14.43;8.68;;;3.90;71.40;;;;;;4955657;28;20114;-88
2022/03/10 07:36:57;;;;;;;14.35;8.57;;;4.30;70.90;;;;;;4955600;28;20137;-88
2022/03/10 07:39:23;;;;;;;12.65;8.48;;;4.50;71.30;;;;;;4977488;28;20042;-89
2022/03/10 07:41:49;;;;;;;14.23;8.85;;;4.80;70.80;;;;;;4955515;28;20061;-87
2022/03/10 07:44:16;;;;;;;15.48;8.95;;;5.50;70.00;;;;;;4983611;28;20442;-90
2022/03/10 07:46:42;;;;;;;13.93;8.18;;;6.20;68.50;;;;;;4956807;28;20503;-89
2022/03/10 07:49:08;;;;;;;15.57;9.00;;;7.00;67.60;;;;;;4975747;28;20058;-89
2022/03/10 07:51:35;;;;;;;14.07;8.23;;;7.60;66.90;;;;;;4974850;28;20031;-90
2022/03/10 07:54:03;;;;;;;12.55;8.35;;;8.10;66.40;;;;;;4975946;28;20475;-91
2022/03/10 07:56:31;;;;;;;12.35;7.82;;;8.50;66.30;;;;;;4972082;28;20023;-90
2022/03/10 07:58:56;;;;;;;10.43;7.53;;;9.00;65.60;;;;;;4951175;28;20023;-90
2022/03/10 08:01:22;;;;;;;12.63;8.32;;;9.60;64.90;;;;;;4957858;28;20495;-90
2022/03/10 08:03:47;;;;;;;13.50;8.07;;;10.10;64.10;;;;;;4963997;28;20130;-90
2022/03/10 08:06:13;;;;;;;12.77;8.10;;;10.40;63.00;;;;;;4972113;28;20019;-89
2022/03/10 08:08:39;;;;;;;12.20;7.90;;;10.50;62.80;;;;;;4955218;28;20030;-90
2022/03/10 08:11:06;;;;;;;10.50;7.68;;;10.30;63.90;;;;;;4954544;28;20181;-90
2022/03/10 08:13:32;;;;;;;12.77;7.63;;;10.30;63.80;;;;;;4954816;28;20142;-89
2022/03/10 08:15:59;;;;;;;12.55;8.02;;;10.60;63.20;;;;;;4954606;28;20027;-89
2022/03/10 08:18:25;;;;;;;12.45;7.68;;;10.60;62.70;;;;;;4974676;28;20030;-90
2022/03/10 08:20:50;;;;;;;11.43;7.47;;;10.70;62.40;;;;;;4955037;28;20030;-89
2022/03/10 08:23:18;;;;;;;12.10;7.88;;;10.60;62.70;;;;;;4956106;28;20130;-90
2022/03/10 08:25:44;;;;;;;13.80;8.73;;;10.60;62.80;;;;;;4990349;28;20026;-89
2022/03/10 08:28:10;;;;;;;12.93;8.27;;;10.50;63.50;;;;;;4959753;28;20041;-90
2022/03/10 08:30:36;;;;;;;13.05;8.68;;;10.60;64.10;;;;;;4969408;28;20033;-90
2022/03/10 08:33:02;;;;;;;13.55;8.85;;;10.70;64.30;;;;;;4973773;28;20089;-90
2022/03/10 08:35:28;;;;;;;15.82;8.55;;;10.80;64.10;;;;;;4959856;28;20030;-89
2022/03/10 08:37:53;;;;;;;14.13;8.90;;;10.90;63.90;;;;;;4958343;28;20062;-90
2022/03/10 08:40:19;;;;;;;11.45;7.78;;;11.00;63.60;;;;;;4956784;28;20063;-89
2022/03/10 08:42:46;;;;;;;13.30;8.40;;;11.10;63.30;;;;;;4957272;28;20129;-89
2022/03/10 08:45:12;;;;;;;13.85;8.32;;;11.20;62.80;;;;;;4956057;28;20155;-90
2022/03/10 08:47:37;;;;;;;14.52;8.80;;;11.30;62.10;;;;;;4955865;28;20106;-90
2022/03/10 08:50:04;;;;;;;21.50;9.48;;;11.20;61.60;;;;;;4973835;28;20038;-89
2022/03/10 08:52:33;;;;;;;14.63;9.00;;;11.10;61.90;;;;;;4971160;28;20027;-89
2022/03/10 08:54:59;;;;;;;15.55;8.98;;;11.00;61.60;;;;;;4952584;28;20027;-90
2022/03/10 08:57:25;;;;;;;14.63;8.50;;;10.90;61.90;;;;;;4972999;28;20031;-88
2022/03/10 08:59:53;;;;;;;16.65;9.25;;;11.00;62.30;;;;;;4972785;28;20521;-90
2022/03/10 09:02:19;;;;;;;11.25;8.40;;;11.10;62.10;;;;;;4956147;28;20138;-90
2022/03/10 09:04:44;;;;;;;15.30;8.43;;;11.10;61.60;;;;;;4955651;28;20454;-91
2022/03/10 09:07:10;;;;;;;14.77;9.07;;;11.20;61.90;;;;;;4953627;28;20117;-90
2022/03/10 09:09:36;;;;;;;17.90;9.30;;;11.20;61.60;;;;;;4972198;28;20591;-90
2022/03/10 09:12:01;;;;;;;15.27;8.45;;;11.00;60.80;;;;;;4970770;28;20475;-90
2022/03/10 09:14:27;;;;;;;15.38;8.10;;;10.80;60.70;;;;;;4956422;28;20443;-90
2022/03/10 09:16:53;;;;;;;15.88;8.57;;;10.80;61.00;;;;;;4953624;28;20031;-90
2022/03/10 09:19:18;;;;;;;11.48;7.88;;;11.00;61.00;;;;;;4977689;28;20035;-89
2022/03/10 09:21:44;;;;;;;15.35;7.85;;;11.10;60.60;;;;;;4974576;28;20057;-90
2022/03/10 09:24:13;;;;;;;13.95;8.45;;;11.30;60.30;;;;;;4974367;28;20135;-90
2022/03/10 09:26:38;;;;;;;14.30;8.18;;;11.40;60.50;;;;;;4960005;28;20056;-90
2022/03/10 09:29:05;;;;;;;13.77;7.20;;;11.50;60.00;;;;;;4957517;28;20022;-90
2022/03/10 09:31:31;;;;;;;12.88;7.45;;;11.60;59.80;;;;;;4956121;28;20085;-90
2022/03/10 09:33:56;;;;;;;12.90;7.72;;;11.70;59.40;;;;;;4954481;28;20856;-90
2022/03/10 09:36:22;;;;;;;11.50;6.57;;;11.90;59.20;;;;;;4956890;28;20031;-89
2022/03/10 09:38:48;;;;;;;9.20;6.57;;;12.00;59.20;;;;;;4969869;28;20377;-90
2022/03/10 09:41:16;;;;;;;8.90;5.20;;;12.10;59.00;;;;;;4954616;28;21284;-90
2022/03/10 09:43:42;;;;;;;7.22;5.50;;;12.20;58.10;;;;;;4972720;28;20054;-90
2022/03/10 09:46:11;;;;;;;8.40;4.95;;;12.30;58.00;;;;;;4947822;28;20030;-90
2022/03/10 09:49:14;;;;;;;7.53;4.75;;;12.50;57.40;;;;;;4956834;28;20023;-92
2022/03/10 09:51:51;;;;;;;7.90;5.13;;;12.70;56.90;;;;;;4949900;28;20103;-92
2022/03/10 09:54:17;;;;;;;9.43;5.22;;;12.90;57.00;;;;;;4975873;28;20034;-89
2022/03/10 09:56:46;;;;;;;6.32;4.72;;;13.10;56.30;;;;;;4953060;28;20042;-88
2022/03/10 09:59:12;;;;;;;7.35;4.72;;;13.20;55.70;;;;;;4952665;28;20062;-89
2022/03/10 10:01:38;;;;;;;8.63;4.57;;;13.20;55.20;;;;;;4952868;28;20126;-89
2022/03/10 10:04:04;;;;;;;8.35;5.18;;;13.30;55.00;;;;;;4952494;28;20117;-88
2022/03/10 10:06:29;;;;;;;7.80;4.88;;;13.30;54.50;;;;;;4971451;28;20038;-88
2022/03/10 10:08:56;;;;;;;8.18;5.45;;;13.30;54.30;;;;;;4955871;28;20027;-89
2022/03/10 10:11:33;;;;;;;10.25;5.28;;;13.30;54.00;;;;;;4955980;28;20066;-89
2022/03/10 10:13:59;;;;;;;7.45;4.38;;;13.40;53.60;;;;;;4964997;28;20061;-89
2022/03/10 10:16:25;;;;;;;6.30;4.32;;;13.40;53.80;;;;;;4987670;28;20023;-88
2022/03/10 10:18:58;;;;;;;12.10;4.03;;;13.50;53.30;;;;;;4984262;28;20023;-88
2022/03/10 10:21:25;;;;;;;7.85;3.97;;;13.60;53.00;;;;;;4955259;28;20026;-88
2022/03/10 10:23:53;;;;;;;7.63;4.13;;;13.80;52.90;;;;;;4956016;28;20403;-89
2022/03/10 10:26:20;;;;;;;7.97;3.75;;;13.70;52.30;;;;;;4955344;28;20034;-88
2022/03/10 10:28:50;;;;;;;7.43;4.30;;;13.80;52.30;;;;;;4954995;28;20026;-88
2022/03/10 10:31:21;;;;;;;10.43;4.00;;;13.90;51.70;;;;;;4956812;28;20042;-88
2022/03/10 10:34:09;;;;;;;5.63;4.07;;;13.90;51.50;;;;;;4957259;28;20030;-89
2022/03/10 10:36:37;;;;;;;5.50;3.80;;;13.90;51.10;;;;;;4957741;28;20023;-89
2022/03/10 10:39:11;;;;;;;8.10;3.65;;;13.90;51.50;;;;;;4973317;28;20054;-89
2022/03/10 10:41:38;;;;;;;5.70;3.80;;;13.90;50.80;;;;;;4961474;28;20022;-89
2022/03/10 10:44:06;;;;;;;7.40;3.97;;;13.90;50.50;;;;;;4994500;28;20015;-87
2022/03/10 10:46:35;;;;;;;5.72;3.55;;;13.80;50.50;;;;;;4971851;28;20027;-87
2022/03/10 10:49:12;;;;;;;4.72;3.55;;;13.80;50.20;;;;;;4974503;28;20054;-87
2022/03/10 10:51:49;;;;;;;6.60;4.30;;;13.80;49.90;;;;;;4988162;28;20046;-89
2022/03/10 10:54:21;;;;;;;8.13;4.00;;;13.80;49.90;;;;;;4978003;28;20116;-88
2022/03/10 10:56:48;;;;;;;5.70;3.40;;;13.70;49.60;;;;;;4965168;28;20038;-89
2022/03/10 10:59:36;;;;;;;4.85;3.75;;;13.70;50.00;;;;;;4997904;28;20477;-88
2022/03/10 11:02:21;;;;;;;6.50;3.65;;;13.70;49.40;;;;;;5005148;28;20026;-88
2022/03/10 11:04:54;;;;;;;6.57;4.10;;;13.60;49.40;;;;;;4995466;28;20050;-88
2022/03/10 11:07:22;;;;;;;;;;;13.60;49.50;;;;;;4982738;28;20027;-89
2022/03/10 11:09:49;;;;;;;7.80;4.20;;;13.70;50.20;;;;;;4955557;28;20060;-89
2022/03/10 11:12:17;;;;;;;5.95;4.30;;;13.70;49.80;;;;;;4955732;28;20395;-89
2022/03/10 11:14:44;;;;;;;6.53;4.43;;;13.60;49.60;;;;;;4975396;28;20153;-88
2022/03/10 11:17:12;;;;;;;6.43;4.13;;;13.70;49.90;;;;;;4977460;28;20027;-89
2022/03/10 11:19:42;;;;;;;5.70;4.15;;;13.80;49.40;;;;;;4982924;28;20038;-88
2022/03/10 11:23:00;;;;;;;4.90;3.78;;;13.70;49.10;;;;;;4956727;28;20023;-90
2022/03/10 11:25:47;;;;;;;4.85;3.38;;;13.80;48.90;;;;;;4929615;29;20031;-89
2022/03/10 11:28:26;;;;;;;5.38;3.22;;;13.80;48.50;;;;;;4918284;29;20032;-89
2022/03/10 11:30:59;;;;;;;4.88;3.10;;;13.80;48.50;;;;;;4946070;28;20039;-88
2022/03/10 11:33:36;;;;;;;6.32;2.88;;;13.80;48.30;;;;;;4945271;28;20015;-89
2022/03/10 11:36:21;;;;;;;5.88;2.70;;;13.80;48.20;;;;;;4956828;28;20023;-91
2022/03/10 11:38:51;;;;;;;5.38;3.05;;;13.80;48.00;;;;;;4973346;28;20042;-90
2022/03/10 11:41:17;;;;;;;5.13;3.22;;;13.80;48.10;;;;;;4957094;28;20031;-89
2022/03/10 11:44:00;;;;;;;5.07;3.20;;;13.90;48.20;;;;;;4974469;28;20037;-89
2022/03/10 11:46:30;;;;;;;4.20;3.30;;;13.90;47.70;;;;;;4964033;28;20022;-89
2022/03/10 11:49:12;;;;;;;5.63;3.58;;;13.90;47.80;;;;;;5000123;28;20022;-88
2022/03/10 11:51:45;;;;;;;5.87;3.20;;;13.90;47.50;;;;;;4974814;28;20058;-86
2022/03/10 11:54:14;;;;;;;5.65;3.45;;;13.80;47.60;;;;;;4974959;28;20019;-90
2022/03/10 11:56:43;;;;;;;5.43;3.63;;;13.90;48.00;;;;;;4974852;28;20019;-90
2022/03/10 11:59:43;;;;;;;6.32;4.00;;;14.00;47.60;;;;;;4974669;28;20494;-90
2022/03/10 12:02:31;;;;;;;8.48;4.63;;;14.00;47.20;;;;;;4983279;28;20041;-90
2022/03/10 12:04:59;;;;;;;6.10;4.05;;;14.00;47.20;;;;;;5017029;23;20427;-91
2022/03/10 12:07:29;;;;;;;6.57;4.20;;;14.10;47.50;;;;;;4955923;28;20105;-88
2022/03/10 12:10:05;;;;;;;7.10;4.10;;;14.10;47.20;;;;;;4969183;28;20031;-88
2022/03/10 12:12:35;;;;;;;7.70;4.30;;;14.20;46.80;;;;;;4939718;29;20038;-89
2022/03/10 12:15:23;;;;;;;7.57;4.38;;;14.10;46.70;;;;;;4940108;29;20023;-89
2022/03/10 12:17:50;;;;;;;7.30;4.20;;;14.20;46.40;;;;;;4948849;29;20034;-90
2022/03/10 12:20:36;;;;;;;8.25;4.82;;;14.10;46.50;;;;;;4947197;29;20034;-91
2022/03/10 12:23:12;;;;;;;6.05;4.68;;;14.10;46.30;;;;;;4939516;29;20034;-90
2022/03/10 12:26:02;;;;;;;7.40;4.82;;;14.10;46.50;;;;;;4939404;29;20448;-89
2022/03/10 12:28:37;;;;;;;8.75;4.50;;;14.10;46.30;;;;;;4944719;29;20415;-90
2022/03/10 12:31:08;;;;;;;6.80;4.57;;;14.20;46.50;;;;;;4955446;28;20122;-90
2022/03/10 12:33:40;;;;;;;5.45;4.13;;;14.30;46.40;;;;;;4950040;28;20071;-89
2022/03/10 12:36:06;;;;;;;5.82;4.47;;;14.40;47.00;;;;;;4955733;29;20443;-88
2022/03/10 12:38:36;;;;;;;7.35;3.88;;;14.50;46.50;;;;;;4937635;29;20042;-86
2022/03/10 12:41:03;;;;;;;6.43;4.32;;;14.50;46.30;;;;;;4955982;28;20073;-90
2022/03/10 12:43:29;;;;;;;6.40;4.55;;;14.50;46.10;;;;;;4955027;28;20565;-90
2022/03/10 12:45:55;;;;;;;6.93;4.22;;;14.50;46.00;;;;;;4938972;29;20035;-90
2022/03/10 12:48:44;;;;;;;8.63;5.00;;;14.60;46.00;;;;;;4943949;28;20475;-87
2022/03/10 12:51:28;;;;;;;7.50;4.82;;;14.60;45.30;;;;;;4944633;29;20019;-88
2022/03/10 12:53:55;;;;;;;6.45;4.65;;;14.60;45.80;;;;;;4955409;29;20023;-88